Romayor, Texas
Current Conditions -  °F | °C
As of 3:15 PM on Friday 31 Oct 2014 (Local Time) from K6R3 Reporting Station
Clear Clear  
Wind Chill: 24°   Ceiling: Unl
Heat Index: 24°   Visibility: 7mi
Dew Point:   Wind: 10mph
Humidity: 35%   Direction: 360°N
Pressure: 30.16"   Gusts: 17mph
Location:  30.45°N, 94.84°W
Report Text: K6R3 312015Z AUTO 36009G15KT 7SM CLR 24/08 A3016 RMK AO2 T02400077
Loading
Personal Weather Stations






























Interactive Weather Map
Tropical Storm Tracking
New forecast layout! Learn more

10-Day Weather Forecast

Advertisements
Track Severe Weather on mobile